Douglas, Isle of Man
Current Conditions -  °F | °C
As of 3:50 PM on Tuesday 21 Oct 2014 (Local Time) from EGNS Reporting Station
Rain Showers Rain Showers  
Wind Chill: 50°   Ceiling: 3000
Heat Index: 50°   Visibility: 6mi
Dew Point: 39°   Wind: 30mph
Humidity: 66%   Direction: 300°WNW
Pressure: 29.83"   Gusts: 49mph
Location:  54.15°N, 4.48°W
Report Text: EGNS 211450Z 30026G43KT 270V350 9999 -SHRA FEW025CB BKN030 10/04 Q1010 NOSIG
Loading
Personal Weather Stations






























Interactive Weather Map
Tropical Storm Tracking
New forecast layout! Learn more

10-Day Weather Forecast

Advertisements
Track Severe Weather on mobile